Time;durP1;ratioP1;P1;durP2;ratioP2;P2;SDS_P1;SDS_P2;PMS_P1;PMS_P2;Temp;Humidity;BMP_temperature;BMP_pressure;BME280_temperature;BME280_humidity;BME280_pressure;Samples;Min_cycle;Max_cycle;Signal;HPM_P1;HPM_P2
2023/07/05 00:02:14;;;;;;;2.67;1.90;;;24.80;69.30;;;;;;5009836;28;20038;-56
2023/07/05 00:04:40;;;;;;;2.75;1.80;;;24.70;69.40;;;;;;5010840;28;20031;-56
2023/07/05 00:07:06;;;;;;;3.55;1.90;;;24.70;69.60;;;;;;5009522;28;20034;-56
2023/07/05 00:09:31;;;;;;;7.20;1.67;;;24.60;69.60;;;;;;5008227;28;20023;-56
2023/07/05 00:11:57;;;;;;;3.40;2.13;;;24.60;69.70;;;;;;5009370;28;20486;-56
2023/07/05 00:14:22;;;;;;;3.15;1.90;;;24.60;69.80;;;;;;5008095;28;20030;-57
2023/07/05 00:16:48;;;;;;;6.43;1.90;;;24.50;69.90;;;;;;5009263;28;20439;-57
2023/07/05 00:19:13;;;;;;;4.47;1.90;;;24.50;70.00;;;;;;5008174;28;20032;-56
2023/07/05 00:21:39;;;;;;;6.15;2.13;;;24.50;70.00;;;;;;5008188;28;20038;-57
2023/07/05 00:24:05;;;;;;;5.95;2.25;;;24.50;70.30;;;;;;5008040;28;20029;-56
2023/07/05 00:26:30;;;;;;;3.40;1.88;;;24.50;70.30;;;;;;5007939;28;20034;-57
2023/07/05 00:28:56;;;;;;;2.85;1.90;;;24.40;70.30;;;;;;5007788;28;20031;-57
2023/07/05 00:31:22;;;;;;;2.25;1.90;;;24.40;70.50;;;;;;5009066;28;20039;-56
2023/07/05 00:33:47;;;;;;;8.15;5.00;;;24.40;70.50;;;;;;5009130;28;20035;-56
2023/07/05 00:36:13;;;;;;;7.55;5.25;;;24.40;70.60;;;;;;5009263;28;20078;-56
2023/07/05 00:38:38;;;;;;;5.55;4.97;;;24.40;70.60;;;;;;5009292;28;20029;-57
2023/07/05 00:41:04;;;;;;;4.18;3.78;;;24.40;71.20;;;;;;5007296;28;20053;-56
2023/07/05 00:43:30;;;;;;;3.20;2.20;;;24.40;70.90;;;;;;5007621;28;20026;-56
2023/07/05 00:46:19;;;;;;;4.05;2.90;;;24.40;70.90;;;;;;4991157;28;20022;-56
2023/07/05 00:48:47;;;;;;;3.72;3.03;;;24.30;71.00;;;;;;5000688;28;20073;-56
2023/07/05 00:51:24;;;;;;;2.90;2.63;;;24.30;71.20;;;;;;5008738;28;20042;-56
2023/07/05 00:53:52;;;;;;;4.75;3.47;;;24.30;71.30;;;;;;5008124;28;20098;-56
2023/07/05 00:56:23;;;;;;;3.67;2.88;;;24.30;71.80;;;;;;5007326;28;20091;-57
2023/07/05 00:58:50;;;;;;;4.72;2.30;;;24.30;72.00;;;;;;4991137;28;20026;-56
2023/07/05 01:01:16;;;;;;;3.00;2.25;;;24.20;72.30;;;;;;5006985;28;20050;-56
2023/07/05 01:03:42;;;;;;;3.25;2.58;;;24.20;72.70;;;;;;5007074;28;20482;-57
2023/07/05 01:06:08;;;;;;;3.22;2.47;;;24.20;72.80;;;;;;5007133;28;20030;-56
2023/07/05 01:08:33;;;;;;;3.42;2.42;;;24.20;73.20;;;;;;5006979;28;20030;-57
2023/07/05 01:11:04;;;;;;;3.53;2.60;;;24.10;73.40;;;;;;5012754;28;20026;-57
2023/07/05 01:13:33;;;;;;;3.30;2.20;;;24.10;73.60;;;;;;5026753;28;20029;-56
2023/07/05 01:16:22;;;;;;;3.00;2.70;;;24.10;73.70;;;;;;5026317;28;20056;-57
2023/07/05 01:18:58;;;;;;;4.57;2.88;;;24.10;73.30;;;;;;5026682;28;20076;-56
2023/07/05 01:21:25;;;;;;;4.45;3.03;;;24.10;73.20;;;;;;5026324;28;20034;-56
2023/07/05 01:24:22;;;;;;;11.07;4.72;;;24.10;73.50;;;;;;5026426;28;20033;-56
2023/07/05 01:27:06;;;;;;;23.02;5.10;;;24.10;73.90;;;;;;5026610;28;20022;-56
2023/07/05 01:29:41;;;;;;;25.70;5.55;;;24.00;74.00;;;;;;5027196;28;20125;-56
2023/07/05 01:32:12;;;;;;;;;;;24.00;74.10;;;;;;5026774;28;20053;-57
2023/07/05 01:34:53;;;;;;;17.50;4.65;;;24.00;74.10;;;;;;5026423;28;19913;-57
2023/07/05 01:37:28;;;;;;;20.92;5.50;;;23.90;74.20;;;;;;5026344;28;20118;-57
2023/07/05 01:39:54;;;;;;;20.17;6.05;;;24.00;74.30;;;;;;5027492;28;20060;-57
2023/07/05 01:42:21;;;;;;;23.02;5.53;;;23.90;74.40;;;;;;5027194;28;20159;-57
2023/07/05 01:44:46;;;;;;;19.67;6.13;;;23.90;74.60;;;;;;5025860;28;20049;-57
2023/07/05 01:47:15;;;;;;;23.23;5.88;;;23.90;75.10;;;;;;5026133;28;20034;-57
2023/07/05 01:50:03;;;;;;;17.77;6.72;;;23.80;75.00;;;;;;5025865;28;20018;-57
2023/07/05 01:52:37;;;;;;;17.17;5.68;;;23.80;74.60;;;;;;5026113;28;20455;-57
2023/07/05 01:55:08;;;;;;;17.50;6.22;;;23.80;74.80;;;;;;5025623;28;20056;-57
2023/07/05 01:57:40;;;;;;;20.80;5.80;;;23.80;74.90;;;;;;5025886;28;20034;-57
2023/07/05 02:00:11;;;;;;;13.15;5.50;;;23.80;75.20;;;;;;5026473;28;20029;-58
2023/07/05 02:02:58;;;;;;;18.60;5.95;;;23.80;75.30;;;;;;5014069;28;20052;-58
2023/07/05 02:05:27;;;;;;;14.32;5.15;;;23.80;75.70;;;;;;5009182;28;20081;-58
2023/07/05 02:07:52;;;;;;;13.45;5.72;;;23.80;75.90;;;;;;5006085;28;20049;-58
2023/07/05 02:10:18;;;;;;;15.30;5.38;;;23.70;75.70;;;;;;5007788;28;20034;-58
2023/07/05 02:12:44;;;;;;;17.15;6.10;;;23.70;75.70;;;;;;5008843;28;20033;-58
2023/07/05 02:15:09;;;;;;;20.05;5.35;;;23.70;75.90;;;;;;5007074;28;20463;-58
2023/07/05 02:17:35;;;;;;;12.18;4.95;;;23.70;75.90;;;;;;5008263;28;20054;-58
2023/07/05 02:20:00;;;;;;;13.68;5.22;;;23.70;75.80;;;;;;5010137;28;20029;-57
2023/07/05 02:22:26;;;;;;;10.55;5.72;;;23.70;75.40;;;;;;5026756;28;20086;-58
2023/07/05 02:24:52;;;;;;;11.52;5.85;;;23.70;75.50;;;;;;5025396;28;20025;-58
2023/07/05 02:27:18;;;;;;;9.70;5.43;;;23.70;75.60;;;;;;5025995;28;20026;-58
2023/07/05 02:29:43;;;;;;;12.65;5.65;;;23.70;75.80;;;;;;5025439;28;20077;-58
2023/07/05 02:32:09;;;;;;;20.83;4.95;;;23.70;75.90;;;;;;5026749;28;20041;-58
2023/07/05 02:34:40;;;;;;;10.38;4.47;;;23.60;76.20;;;;;;5009154;28;20035;-58
2023/07/05 02:37:06;;;;;;;10.27;4.53;;;23.60;76.50;;;;;;5026312;28;20034;-58
2023/07/05 02:39:31;;;;;;;12.57;4.43;;;23.60;76.70;;;;;;5025392;28;20026;-58
2023/07/05 02:41:57;;;;;;;12.73;4.47;;;23.60;76.90;;;;;;5025175;28;20034;-58
2023/07/05 02:44:22;;;;;;;9.23;4.32;;;23.60;77.00;;;;;;5025434;28;20452;-58
2023/07/05 02:46:48;;;;;;;13.27;4.05;;;23.50;77.20;;;;;;5026586;28;20026;-58
2023/07/05 02:49:13;;;;;;;9.38;4.43;;;23.50;77.30;;;;;;5025472;28;20065;-58
2023/07/05 02:51:39;;;;;;;9.60;4.40;;;23.50;77.30;;;;;;5026453;28;20057;-58
2023/07/05 02:54:05;;;;;;;11.60;4.60;;;23.50;77.40;;;;;;5024833;28;20026;-58
2023/07/05 02:56:30;;;;;;;8.80;4.20;;;23.50;77.30;;;;;;5026422;28;20038;-58
2023/07/05 02:58:56;;;;;;;10.65;4.30;;;23.40;77.80;;;;;;5025250;28;20053;-58
2023/07/05 03:01:21;;;;;;;11.02;3.97;;;23.40;77.20;;;;;;5026241;28;20045;-58
2023/07/05 03:03:47;;;;;;;9.55;4.10;;;23.50;77.30;;;;;;5008634;28;20030;-58
2023/07/05 03:06:12;;;;;;;9.05;4.32;;;23.40;77.30;;;;;;5026357;28;20029;-58
2023/07/05 03:08:38;;;;;;;9.02;4.10;;;23.40;77.30;;;;;;5026244;28;20057;-58
2023/07/05 03:11:03;;;;;;;12.43;3.55;;;23.40;77.40;;;;;;5011538;28;20034;-58
2023/07/05 03:13:30;;;;;;;7.80;3.63;;;23.40;77.40;;;;;;5006571;28;20065;-58
2023/07/05 03:15:57;;;;;;;10.95;4.07;;;23.40;77.60;;;;;;5005433;28;20034;-58
2023/07/05 03:18:22;;;;;;;11.10;3.83;;;23.40;77.50;;;;;;5005348;28;20026;-58
2023/07/05 03:20:48;;;;;;;10.07;3.95;;;23.40;77.60;;;;;;5004987;28;20026;-58
2023/07/05 03:23:14;;;;;;;9.75;4.05;;;23.40;77.70;;;;;;5005323;28;20097;-58
2023/07/05 03:25:40;;;;;;;6.75;4.15;;;23.40;77.60;;;;;;5006284;28;20034;-58
2023/07/05 03:28:06;;;;;;;11.77;5.00;;;23.40;77.70;;;;;;5007237;28;20023;-58
2023/07/05 03:30:34;;;;;;;8.25;4.70;;;23.30;77.80;;;;;;5005338;28;20033;-58
2023/07/05 03:32:59;;;;;;;10.57;5.43;;;23.30;78.00;;;;;;5005565;28;20030;-58
2023/07/05 03:35:25;;;;;;;15.80;6.63;;;23.30;78.00;;;;;;5006508;28;20094;-58
2023/07/05 03:37:50;;;;;;;68.65;11.00;;;23.30;78.10;;;;;;5006410;28;20026;-58
2023/07/05 03:40:16;;;;;;;47.85;8.35;;;23.30;78.10;;;;;;5008715;28;20038;-58
2023/07/05 03:42:41;;;;;;;36.85;7.45;;;23.30;78.20;;;;;;5008349;28;20144;-58
2023/07/05 03:45:07;;;;;;;30.08;7.43;;;23.30;78.30;;;;;;5009541;28;20022;-58
2023/07/05 03:47:33;;;;;;;30.25;7.38;;;23.30;78.30;;;;;;5009983;28;20514;-58
2023/07/05 03:49:58;;;;;;;32.42;6.75;;;23.30;78.40;;;;;;5009472;28;20032;-58
2023/07/05 03:52:24;;;;;;;31.25;7.47;;;23.30;78.40;;;;;;5009020;28;20034;-57
2023/07/05 03:54:50;;;;;;;26.40;7.25;;;23.30;78.50;;;;;;5011238;28;20027;-58
2023/07/05 03:57:15;;;;;;;22.23;6.80;;;23.20;78.50;;;;;;5010771;28;20467;-58
2023/07/05 03:59:41;;;;;;;37.83;7.10;;;23.20;78.50;;;;;;5010347;28;20057;-57
2023/07/05 04:02:06;;;;;;;21.65;6.28;;;23.20;78.70;;;;;;5016438;28;20513;-58
2023/07/05 04:04:32;;;;;;;28.73;6.63;;;23.30;78.80;;;;;;5008598;28;20048;-58
2023/07/05 04:06:59;;;;;;;22.77;6.38;;;23.20;78.80;;;;;;5010433;28;20042;-58
2023/07/05 04:09:25;;;;;;;32.05;6.72;;;23.20;78.90;;;;;;4993500;28;20033;-58
2023/07/05 04:11:50;;;;;;;27.17;6.65;;;23.20;79.10;;;;;;5008987;28;20093;-58
2023/07/05 04:14:16;;;;;;;18.48;5.38;;;23.20;79.10;;;;;;5008505;28;20490;-58
2023/07/05 04:16:41;;;;;;;23.45;5.57;;;23.20;79.10;;;;;;5008714;28;20035;-58
2023/07/05 04:19:07;;;;;;;15.63;4.72;;;23.20;79.20;;;;;;5006956;28;20050;-58
2023/07/05 04:21:33;;;;;;;16.15;4.78;;;23.20;79.30;;;;;;5027955;28;20154;-57
2023/07/05 04:23:58;;;;;;;17.67;5.43;;;23.20;79.40;;;;;;5027860;28;20026;-58
2023/07/05 04:26:25;;;;;;;23.58;5.80;;;23.20;79.50;;;;;;5027603;28;20026;-58
2023/07/05 04:28:51;;;;;;;23.98;5.35;;;23.20;79.50;;;;;;5029161;28;20504;-58
2023/07/05 04:31:19;;;;;;;19.00;4.68;;;23.20;79.80;;;;;;5028742;28;20026;-58
2023/07/05 04:33:45;;;;;;;23.02;5.30;;;23.20;79.80;;;;;;5027644;28;20029;-58
2023/07/05 04:36:11;;;;;;;21.52;4.85;;;23.10;80.00;;;;;;5027021;28;20036;-58
2023/07/05 04:38:36;;;;;;;20.70;5.30;;;23.10;80.10;;;;;;5027075;28;20509;-58
2023/07/05 04:41:02;;;;;;;13.93;4.82;;;23.10;80.20;;;;;;5027002;28;20049;-58
2023/07/05 04:43:27;;;;;;;19.17;4.88;;;23.20;80.30;;;;;;5027332;28;20048;-58
2023/07/05 04:45:54;;;;;;;17.20;5.10;;;23.10;80.30;;;;;;5028511;28;20458;-58
2023/07/05 04:48:20;;;;;;;17.27;4.45;;;23.10;80.40;;;;;;5027217;28;20021;-58
2023/07/05 04:50:50;;;;;;;17.98;4.70;;;23.10;80.20;;;;;;5026396;28;20030;-58
2023/07/05 04:53:16;;;;;;;14.07;4.43;;;23.10;80.10;;;;;;5007594;28;20041;-58
2023/07/05 04:55:48;;;;;;;14.98;4.28;;;23.10;80.00;;;;;;5007309;28;20038;-58
2023/07/05 04:58:15;;;;;;;15.85;4.50;;;23.10;80.10;;;;;;4991102;28;20037;-57
2023/07/05 05:00:46;;;;;;;17.88;4.10;;;23.10;80.10;;;;;;4994869;28;20088;-58
2023/07/05 05:03:13;;;;;;;20.92;5.10;;;23.10;80.10;;;;;;5028521;28;20441;-58
2023/07/05 05:05:39;;;;;;;16.05;4.10;;;23.10;80.20;;;;;;5027409;28;20038;-58
2023/07/05 05:08:04;;;;;;;14.43;4.43;;;23.10;80.20;;;;;;5026791;28;20082;-58
2023/07/05 05:10:30;;;;;;;11.93;4.13;;;23.10;80.10;;;;;;5027295;28;20033;-57
2023/07/05 05:12:55;;;;;;;15.10;4.78;;;23.10;80.10;;;;;;5026033;28;20021;-58
2023/07/05 05:15:21;;;;;;;12.57;4.07;;;23.10;80.20;;;;;;5027941;28;20034;-58
2023/07/05 05:17:46;;;;;;;11.25;3.88;;;23.10;80.30;;;;;;5028527;28;20030;-58
2023/07/05 05:20:12;;;;;;;14.55;4.13;;;23.10;81.00;;;;;;5028725;28;20030;-57
2023/07/05 05:22:38;;;;;;;10.25;3.70;;;23.10;80.30;;;;;;5027851;28;20037;-58
2023/07/05 05:25:04;;;;;;;9.57;3.95;;;23.10;80.20;;;;;;5011098;28;20040;-58
2023/07/05 05:27:29;;;;;;;13.13;4.20;;;23.00;80.20;;;;;;5026360;28;20042;-57
2023/07/05 05:29:55;;;;;;;7.75;4.03;;;23.00;80.10;;;;;;5027887;28;20030;-56
2023/07/05 05:32:20;;;;;;;13.35;4.05;;;23.00;80.00;;;;;;5027888;28;20057;-56
2023/07/05 05:34:46;;;;;;;15.63;4.47;;;23.00;80.60;;;;;;5027796;28;20022;-57
2023/07/05 05:37:12;;;;;;;8.32;3.33;;;23.00;80.10;;;;;;5026119;28;20034;-58
2023/07/05 05:39:37;;;;;;;6.78;3.17;;;23.00;80.40;;;;;;5027723;28;20034;-58
2023/07/05 05:42:03;;;;;;;6.72;2.85;;;23.00;80.70;;;;;;5026864;28;20098;-57
2023/07/05 05:44:28;;;;;;;10.38;2.50;;;22.90;81.10;;;;;;5025984;28;20022;-57
2023/07/05 05:46:54;;;;;;;9.40;3.03;;;22.90;81.70;;;;;;5010053;28;20026;-57
2023/07/05 05:49:20;;;;;;;4.40;2.50;;;22.80;82.00;;;;;;5026566;28;20379;-57
2023/07/05 05:51:45;;;;;;;2.63;2.00;;;22.80;82.30;;;;;;5026204;28;20459;-58
2023/07/05 05:54:11;;;;;;;5.35;2.45;;;22.80;82.60;;;;;;5009747;28;20036;-58
2023/07/05 05:56:36;;;;;;;3.58;2.10;;;22.70;82.80;;;;;;5027689;28;20033;-58
2023/07/05 05:59:02;;;;;;;3.20;2.28;;;22.70;82.80;;;;;;5027623;28;20026;-58
2023/07/05 06:01:28;;;;;;;6.28;2.30;;;22.70;83.20;;;;;;5016651;28;20038;-58
2023/07/05 06:03:54;;;;;;;3.22;1.65;;;22.70;83.60;;;;;;5007281;28;20022;-57
2023/07/05 06:06:19;;;;;;;3.40;2.28;;;22.60;83.80;;;;;;5006490;28;20085;-58
2023/07/05 06:08:45;;;;;;;4.07;2.17;;;22.50;83.80;;;;;;5007600;28;20101;-57
2023/07/05 06:11:10;;;;;;;4.45;1.77;;;22.50;84.10;;;;;;5012699;28;20026;-58
2023/07/05 06:13:36;;;;;;;2.97;1.85;;;22.50;84.40;;;;;;5025527;28;20033;-57
2023/07/05 06:16:03;;;;;;;3.13;2.13;;;22.50;84.50;;;;;;5026034;28;20081;-57
2023/07/05 06:18:28;;;;;;;4.35;2.00;;;22.50;84.60;;;;;;5024607;28;20041;-57
2023/07/05 06:20:54;;;;;;;3.97;1.98;;;22.40;84.60;;;;;;5026615;28;20038;-58
2023/07/05 06:23:20;;;;;;;6.18;2.10;;;22.40;84.80;;;;;;5008904;28;20026;-57
2023/07/05 06:25:49;;;;;;;3.42;1.95;;;22.50;84.80;;;;;;5025107;28;20065;-57
2023/07/05 06:28:15;;;;;;;5.32;1.90;;;22.40;84.80;;;;;;5024752;28;20022;-57
2023/07/05 06:30:41;;;;;;;13.05;2.05;;;22.40;84.90;;;;;;5025435;28;20038;-57
2023/07/05 06:33:06;;;;;;;5.53;2.08;;;22.40;85.10;;;;;;5025466;28;20053;-57
2023/07/05 06:35:32;;;;;;;3.28;1.80;;;22.40;85.20;;;;;;5025231;28;20034;-58
2023/07/05 06:37:58;;;;;;;4.78;1.92;;;22.40;85.30;;;;;;5019553;28;20029;-57
2023/07/05 06:40:23;;;;;;;9.23;2.70;;;22.40;85.20;;;;;;5019212;28;20026;-57
2023/07/05 06:42:49;;;;;;;12.40;3.08;;;22.40;85.30;;;;;;5010345;28;20044;-57
2023/07/05 06:45:14;;;;;;;9.05;2.88;;;22.40;85.40;;;;;;5025106;28;20049;-57
2023/07/05 06:47:41;;;;;;;9.70;2.97;;;22.40;85.10;;;;;;5018970;28;20086;-57
2023/07/05 06:50:07;;;;;;;9.52;2.42;;;22.40;85.20;;;;;;4989271;28;20033;-57
2023/07/05 06:52:33;;;;;;;9.32;2.53;;;22.50;85.20;;;;;;5005789;28;20034;-57
2023/07/05 06:54:58;;;;;;;7.32;2.42;;;22.40;85.20;;;;;;5027409;28;20057;-57
2023/07/05 06:57:24;;;;;;;16.17;3.13;;;22.50;85.20;;;;;;5016896;28;20026;-57
2023/07/05 06:59:49;;;;;;;7.47;2.35;;;22.50;85.30;;;;;;5023035;28;20014;-57
2023/07/05 07:02:15;;;;;;;15.32;3.22;;;22.50;85.20;;;;;;5015523;28;20086;-57
2023/07/05 07:04:40;;;;;;;19.65;3.15;;;22.30;85.30;;;;;;5032913;28;20025;-56
2023/07/05 07:07:06;;;;;;;12.18;2.58;;;22.50;85.50;;;;;;5032809;28;20045;-57
2023/07/05 07:09:33;;;;;;;8.32;3.33;;;22.50;85.40;;;;;;5012366;28;20036;-57
2023/07/05 07:11:59;;;;;;;10.20;2.47;;;22.60;85.50;;;;;;5001909;28;20038;-57
2023/07/05 07:14:25;;;;;;;19.45;4.10;;;22.60;85.40;;;;;;5023233;28;20037;-57
2023/07/05 07:16:51;;;;;;;79.65;9.93;;;22.60;85.20;;;;;;5023550;28;20099;-57
2023/07/05 07:19:17;;;;;;;28.00;5.35;;;22.60;84.90;;;;;;5007339;28;20065;-57
2023/07/05 07:21:43;;;;;;;86.80;10.98;;;22.60;84.80;;;;;;5026952;28;20085;-57
2023/07/05 07:24:09;;;;;;;50.00;7.20;;;22.60;84.30;;;;;;5015061;28;20014;-57
2023/07/05 07:26:35;;;;;;;58.50;7.80;;;22.70;84.30;;;;;;5021148;28;20026;-57
2023/07/05 07:29:00;;;;;;;73.53;9.43;;;22.70;84.20;;;;;;5020702;28;20076;-57
2023/07/05 07:31:28;;;;;;;41.60;6.97;;;22.60;84.20;;;;;;5028064;28;20371;-56
2023/07/05 07:33:54;;;;;;;28.50;6.22;;;22.60;84.10;;;;;;5027581;28;20029;-57
2023/07/05 07:36:21;;;;;;;36.70;6.60;;;22.70;83.70;;;;;;5027987;28;20030;-56
2023/07/05 07:38:47;;;;;;;52.03;7.40;;;22.70;83.50;;;;;;5011535;28;20385;-57
2023/07/05 07:41:16;;;;;;;71.90;9.25;;;22.70;83.20;;;;;;5027348;28;20034;-57
2023/07/05 07:43:42;;;;;;;27.55;6.30;;;22.70;83.40;;;;;;5013298;28;20081;-57
2023/07/05 07:46:15;;;;;;;52.67;7.13;;;22.70;83.40;;;;;;5028564;28;20095;-57
2023/07/05 07:48:41;;;;;;;37.25;7.30;;;22.70;83.60;;;;;;5015495;28;20018;-57
2023/07/05 07:51:08;;;;;;;30.02;5.53;;;22.70;83.70;;;;;;5047501;28;20367;-57
2023/07/05 07:53:33;;;;;;;38.10;7.15;;;22.70;83.60;;;;;;5047065;28;20056;-57
2023/07/05 07:55:59;;;;;;;24.27;5.82;;;22.80;83.60;;;;;;5046090;28;20042;-57
2023/07/05 07:58:24;;;;;;;41.92;7.38;;;22.70;83.70;;;;;;5043530;28;20068;-57
2023/07/05 08:00:50;;;;;;;44.22;6.65;;;22.80;83.80;;;;;;5007716;28;20046;-57
2023/07/05 08:03:16;;;;;;;25.08;6.38;;;22.80;83.80;;;;;;5010154;28;20620;-57
2023/07/05 08:05:41;;;;;;;32.65;6.38;;;22.80;83.90;;;;;;5048741;28;20029;-57
2023/07/05 08:08:07;;;;;;;32.75;6.38;;;22.80;84.00;;;;;;5030676;28;20097;-58
2023/07/05 08:10:32;;;;;;;37.42;6.55;;;22.80;84.20;;;;;;5005257;28;20080;-58
2023/07/05 08:12:58;;;;;;;31.67;6.40;;;22.70;84.60;;;;;;5032091;28;20045;-58
2023/07/05 08:15:24;;;;;;;36.08;6.90;;;22.70;84.70;;;;;;5020882;28;20105;-58
2023/07/05 08:17:50;;;;;;;44.03;6.65;;;22.70;85.10;;;;;;5026994;28;20049;-58
2023/07/05 08:20:16;;;;;;;39.53;6.97;;;22.70;85.60;;;;;;5017258;28;20035;-58
2023/07/05 08:22:41;;;;;;;55.92;7.97;;;22.70;85.90;;;;;;5037020;28;20086;-58
2023/07/05 08:25:07;;;;;;;41.40;6.68;;;22.70;86.30;;;;;;5020502;28;20062;-58
2023/07/05 08:27:33;;;;;;;44.15;6.25;;;22.70;86.30;;;;;;5025562;28;20025;-58
2023/07/05 08:29:58;;;;;;;45.72;6.18;;;22.60;86.20;;;;;;5025877;28;20022;-57
2023/07/05 08:32:24;;;;;;;33.30;6.78;;;22.60;86.20;;;;;;5025138;28;20029;-58
2023/07/05 08:34:50;;;;;;;27.40;5.55;;;22.70;86.10;;;;;;5015569;28;20026;-57
2023/07/05 08:37:15;;;;;;;46.00;7.15;;;22.70;86.00;;;;;;5008604;28;20038;-58
2023/07/05 08:39:41;;;;;;;30.33;5.18;;;22.90;86.10;;;;;;4994709;28;20030;-57
2023/07/05 08:42:07;;;;;;;32.15;6.18;;;22.70;86.40;;;;;;5024990;28;20034;-58
2023/07/05 08:44:53;;;;;;;39.67;6.03;;;22.70;85.80;;;;;;5016361;28;20058;-57
2023/07/05 08:47:32;;;;;;;30.85;6.55;;;22.80;85.70;;;;;;5011759;28;20509;-58
2023/07/05 08:50:09;;;;;;;48.72;6.95;;;22.80;85.60;;;;;;5012068;28;20023;-57
2023/07/05 08:52:43;;;;;;;44.78;6.53;;;22.80;85.60;;;;;;5004909;28;20137;-57
2023/07/05 08:55:16;;;;;;;41.28;5.88;;;22.80;85.40;;;;;;5021338;28;20025;-57
2023/07/05 08:57:46;;;;;;;42.03;6.13;;;22.90;85.20;;;;;;5010671;28;20053;-57
2023/07/05 09:00:16;;;;;;;29.48;5.80;;;22.90;85.10;;;;;;5024732;28;20033;-57
2023/07/05 09:02:42;;;;;;;33.47;5.63;;;22.90;84.90;;;;;;5008432;28;20026;-57
2023/07/05 09:05:21;;;;;;;42.03;5.75;;;22.90;85.30;;;;;;5018898;28;20034;-58
2023/07/05 09:08:19;;;;;;;37.13;5.75;;;22.90;85.40;;;;;;5024994;28;20030;-57
2023/07/05 09:10:55;;;;;;;29.30;6.05;;;22.90;85.50;;;;;;4954726;28;20036;-57
2023/07/05 09:13:36;;;;;;;36.60;6.03;;;23.00;84.90;;;;;;5014960;28;20034;-57
2023/07/05 09:16:24;;;;;;;45.30;6.15;;;23.00;84.40;;;;;;5028353;28;20038;-57
2023/07/05 09:19:21;;;;;;;45.78;6.15;;;23.00;84.90;;;;;;5025374;28;20100;-57
2023/07/05 09:21:58;;;;;;;94.18;10.80;;;23.00;85.10;;;;;;4988542;28;20132;-57
2023/07/05 09:24:46;;;;;;;52.58;8.40;;;23.10;85.30;;;;;;4987372;28;20429;-58
2023/07/05 09:27:22;;;;;;;59.63;8.13;;;23.10;85.20;;;;;;5024125;28;20042;-57
2023/07/05 09:30:08;;;;;;;48.30;7.93;;;23.10;85.10;;;;;;5021880;28;20064;-58
2023/07/05 09:32:45;;;;;;;89.18;10.45;;;23.10;84.90;;;;;;5021769;28;20034;-58
2023/07/05 09:35:16;;;;;;;83.53;11.30;;;23.10;84.90;;;;;;5013798;28;20544;-57
2023/07/05 09:38:03;;;;;;;83.50;10.65;;;23.10;85.00;;;;;;5026193;28;20494;-57
2023/07/05 09:40:34;;;;;;;80.82;10.35;;;23.20;84.90;;;;;;5023359;28;20052;-57
2023/07/05 09:43:04;;;;;;;73.00;9.45;;;23.20;84.50;;;;;;5022179;28;20119;-56
2023/07/05 09:45:30;;;;;;;55.15;7.95;;;23.20;84.20;;;;;;5013744;28;20042;-56
2023/07/05 09:48:05;;;;;;;62.67;8.27;;;23.20;83.60;;;;;;5009342;28;20024;-56
2023/07/05 09:50:30;;;;;;;65.68;8.90;;;23.20;83.30;;;;;;5011429;28;20058;-56
2023/07/05 09:53:23;;;;;;;51.47;7.32;;;23.20;83.20;;;;;;5024294;28;20026;-56
2023/07/05 09:56:03;;;;;;;65.57;8.85;;;23.20;83.00;;;;;;5005756;28;20149;-56
2023/07/05 09:58:29;;;;;;;55.92;9.20;;;23.20;83.10;;;;;;5030649;28;20061;-56
2023/07/05 10:00:54;;;;;;;65.80;8.75;;;23.30;83.20;;;;;;5013264;28;20034;-58
2023/07/05 10:03:20;;;;;;;75.93;9.32;;;23.30;83.20;;;;;;5012117;28;20247;-58
2023/07/05 10:05:53;;;;;;;61.15;9.05;;;23.30;83.00;;;;;;5016427;28;20030;-56
2023/07/05 10:08:19;;;;;;;46.80;7.50;;;23.30;82.90;;;;;;5019177;28;20501;-56
2023/07/05 10:10:46;;;;;;;47.97;8.23;;;23.30;82.60;;;;;;5009100;28;20033;-57
2023/07/05 10:13:19;;;;;;;84.10;9.02;;;23.40;82.40;;;;;;5003276;28;20092;-56
2023/07/05 10:15:50;;;;;;;63.53;7.45;;;23.40;82.30;;;;;;4989993;28;20038;-57
2023/07/05 10:18:32;;;;;;;99.45;10.80;;;23.40;82.20;;;;;;5009157;28;20033;-56
2023/07/05 10:21:00;;;;;;;63.50;8.90;;;23.40;82.20;;;;;;4997914;28;20035;-56
2023/07/05 10:23:26;;;;;;;36.15;6.63;;;23.40;82.10;;;;;;5022124;28;20034;-55
2023/07/05 10:26:04;;;;;;;40.78;7.32;;;23.40;82.10;;;;;;5015744;28;20030;-56
2023/07/05 10:28:30;;;;;;;66.13;8.65;;;23.40;82.10;;;;;;5015890;28;20037;-58
2023/07/05 10:31:00;;;;;;;50.17;7.03;;;23.40;82.10;;;;;;5006174;28;20541;-58
2023/07/05 10:33:27;;;;;;;47.28;6.75;;;23.40;81.90;;;;;;5009935;28;20099;-58
2023/07/05 10:35:57;;;;;;;36.60;6.50;;;23.40;81.90;;;;;;5008206;28;20451;-56
2023/07/05 10:38:41;;;;;;;35.15;5.63;;;23.40;81.80;;;;;;5008043;28;20026;-56
2023/07/05 10:41:31;;;;;;;37.35;5.75;;;23.40;81.80;;;;;;5016247;28;20148;-56
2023/07/05 10:44:35;;;;;;;34.97;6.22;;;23.40;81.50;;;;;;4997405;28;20411;-57
2023/07/05 10:47:00;;;;;;;39.75;5.97;;;23.40;82.00;;;;;;4926400;29;20043;-56
2023/07/05 10:49:27;;;;;;;36.70;6.13;;;23.40;82.20;;;;;;4986474;28;20030;-56
2023/07/05 10:52:05;;;;;;;26.00;5.38;;;23.40;82.30;;;;;;5020535;28;20033;-58
2023/07/05 10:54:40;;;;;;;36.05;5.82;;;23.40;83.20;;;;;;5023601;28;20029;-56
2023/07/05 10:57:27;;;;;;;32.92;5.45;;;23.30;82.60;;;;;;5006070;28;20083;-56
2023/07/05 11:00:29;;;;;;;42.78;6.05;;;23.30;82.90;;;;;;4958773;28;20141;-57
2023/07/05 11:02:58;;;;;;;35.45;6.53;;;23.20;83.00;;;;;;4989818;28;20380;-56
2023/07/05 11:05:40;;;;;;;51.72;8.05;;;23.20;83.10;;;;;;5015706;28;20029;-57
2023/07/05 11:08:14;;;;;;;74.68;9.15;;;23.20;83.10;;;;;;5016247;28;20056;-58
2023/07/05 11:10:41;;;;;;;34.75;5.88;;;23.10;82.90;;;;;;5006337;28;20038;-58
2023/07/05 11:13:26;;;;;;;122.28;13.50;;;23.10;83.40;;;;;;5018078;28;20014;-58
2023/07/05 11:15:52;;;;;;;73.72;9.45;;;23.20;83.40;;;;;;5007967;28;20041;-58
2023/07/05 11:18:18;;;;;;;33.67;5.65;;;23.20;83.00;;;;;;5024660;28;20026;-56
2023/07/05 11:20:55;;;;;;;39.30;5.80;;;23.30;82.90;;;;;;5006270;28;20432;-56
2023/07/05 11:23:43;;;;;;;20.60;4.43;;;23.30;82.20;;;;;;5000508;28;20036;-56
2023/07/05 11:26:09;;;;;;;23.05;3.92;;;23.30;81.50;;;;;;5024457;28;20030;-56
2023/07/05 11:28:35;;;;;;;24.30;4.60;;;23.30;81.70;;;;;;5010384;28;20030;-56
2023/07/05 11:31:02;;;;;;;26.50;4.50;;;23.40;81.70;;;;;;5012432;28;20034;-56
2023/07/05 11:33:27;;;;;;;33.42;5.03;;;23.40;81.50;;;;;;5018511;28;20409;-58
2023/07/05 11:35:55;;;;;;;33.95;5.25;;;23.40;81.20;;;;;;5008900;28;20057;-58
2023/07/05 11:38:36;;;;;;;21.95;4.47;;;23.40;81.20;;;;;;5015853;28;20120;-56
2023/07/05 11:41:05;;;;;;;40.90;4.63;;;23.40;81.30;;;;;;5018848;28;20036;-56
2023/07/05 11:43:36;;;;;;;30.58;4.90;;;23.40;81.30;;;;;;5005107;28;20037;-56
2023/07/05 11:46:02;;;;;;;36.15;5.05;;;23.40;81.10;;;;;;5014897;28;20053;-56
2023/07/05 11:48:38;;;;;;;42.33;5.65;;;23.40;81.20;;;;;;5009950;28;20030;-57
2023/07/05 11:51:08;;;;;;;39.05;5.63;;;23.40;81.30;;;;;;5014420;28;20037;-56
2023/07/05 11:53:34;;;;;;;42.92;7.18;;;23.40;81.50;;;;;;5019916;28;20036;-55
2023/07/05 11:56:00;;;;;;;41.38;6.28;;;23.40;81.50;;;;;;5014460;28;20125;-56
2023/07/05 11:58:27;;;;;;;49.47;6.97;;;23.40;81.60;;;;;;5018806;28;20041;-56
2023/07/05 12:01:00;;;;;;;61.17;7.93;;;23.30;81.50;;;;;;4998362;28;20064;-57
2023/07/05 12:03:28;;;;;;;50.50;6.80;;;23.30;81.70;;;;;;5019418;28;20034;-57
2023/07/05 12:05:55;;;;;;;60.15;7.68;;;23.30;82.70;;;;;;5000284;28;20026;-57
2023/07/05 12:08:36;;;;;;;53.67;7.70;;;23.30;82.30;;;;;;5013148;28;20678;-58
2023/07/05 12:11:02;;;;;;;51.20;6.93;;;23.30;82.20;;;;;;5019494;28;20026;-57
2023/07/05 12:13:32;;;;;;;55.13;8.98;;;23.30;82.40;;;;;;5022242;28;20034;-57
2023/07/05 12:15:58;;;;;;;75.18;9.88;;;23.30;82.60;;;;;;5021161;28;20061;-57
2023/07/05 12:18:24;;;;;;;81.15;9.60;;;23.30;82.30;;;;;;5027700;28;20105;-57
2023/07/05 12:20:54;;;;;;;78.70;10.32;;;23.40;82.30;;;;;;5007220;28;20093;-57
2023/07/05 12:23:21;;;;;;;90.22;11.80;;;23.50;82.20;;;;;;5013454;28;20029;-57
2023/07/05 12:25:53;;;;;;;97.60;13.07;;;23.50;82.10;;;;;;5011943;28;20538;-57
2023/07/05 12:28:23;;;;;;;73.65;9.88;;;23.60;82.10;;;;;;5013396;28;20026;-55
2023/07/05 12:30:49;;;;;;;98.45;13.00;;;23.60;82.10;;;;;;5014405;28;20092;-57
2023/07/05 12:33:26;;;;;;;89.13;13.13;;;23.70;82.40;;;;;;5015028;28;20280;-57
2023/07/05 12:36:07;;;;;;;136.13;16.08;;;23.70;82.20;;;;;;5010085;28;20042;-57
2023/07/05 12:38:33;;;;;;;152.43;18.63;;;23.80;82.60;;;;;;5019803;28;20076;-57
2023/07/05 12:40:58;;;;;;;125.45;17.08;;;23.80;82.90;;;;;;5015076;28;20109;-57
2023/07/05 12:43:28;;;;;;;154.77;18.48;;;23.90;83.00;;;;;;5015394;28;20085;-57
2023/07/05 12:46:22;;;;;;;170.57;18.10;;;23.80;83.10;;;;;;5014899;28;20022;-57
2023/07/05 12:48:49;;;;;;;184.93;20.58;;;23.80;83.30;;;;;;5017052;28;20082;-57